CheckWX is a tool to help pilots better visualize weather data.  It is not intended as a substitute for an official pre-flight weather briefing.

08:54:26 UTC

LQSA TAF
Sarajevo International Airport
Sarajevo, Bosnia and Herzegovina
TAF LQSA 210500Z 2106/2206 16005KT 9999 SCT055 TX11/2112Z TN03/2205Z TEMPO 2122/2206 3000 BR PROB30 2203/2206 0500 FG BKN001

Nov-21@
06:00 UTC

Nov-21 @ 06:00 UTC

Nov-22@
06:00 UTC

Nov-22 @ 06:00 UTC

TAF LQSA 210500Z 2106/2206 16005KT 9999 SCT055 TX11/2112Z TN03/2205Z
Wind
  • 160° at 5 KTS
Cloud Levels
  • Scattered at 5,500' AGL

Nov-21@
22:00 UTC

Nov-21 @ 22:00 UTC

Nov-22@
06:00 UTC

Nov-22 @ 06:00 UTC

TEMPO 2122/2206 3000 BR

Temporary

Temporary Changes expected for less than half the time period

Conditions
Mist

Nov-22@
03:00 UTC

Nov-22 @ 03:00 UTC

Nov-22@
06:00 UTC

Nov-22 @ 06:00 UTC

PROB30 2203/2206 0500 FG BKN001

Probable - 30% Likelihood

Probable - 30% Likelihood during this time.

Conditions
Fog
Cloud Levels
  • Broken at 100' AGL